sensor_id;sensor_type;location;lat;lon;timestamp;P1;P2;P0
57049;PMS7003;42935;50.966;16.992;2023-03-01T00:01:00;116;87;49
57049;PMS7003;42935;50.966;16.992;2023-03-01T00:04:26;158;118;66
57049;PMS7003;42935;50.966;16.992;2023-03-01T00:07:53;146;108;58
57049;PMS7003;42935;50.966;16.992;2023-03-01T00:14:47;110;82;48
57049;PMS7003;42935;50.966;16.992;2023-03-01T00:18:10;115;81;45
57049;PMS7003;42935;50.966;16.992;2023-03-01T00:21:37;123;91;51
57049;PMS7003;42935;50.966;16.992;2023-03-01T00:24:59;123;87;47
57049;PMS7003;42935;50.966;16.992;2023-03-01T00:28:20;109;86;48
57049;PMS7003;42935;50.966;16.992;2023-03-01T00:31:42;109;77;44
57049;PMS7003;42935;50.966;16.992;2023-03-01T00:35:08;105;76;44
57049;PMS7003;42935;50.966;16.992;2023-03-01T00:38:38;96;72;42
57049;PMS7003;42935;50.966;16.992;2023-03-01T00:42:02;108;81;48
57049;PMS7003;42935;50.966;16.992;2023-03-01T00:45:30;105;80;45
57049;PMS7003;42935;50.966;16.992;2023-03-01T00:48:48;105;83;47
57049;PMS7003;42935;50.966;16.992;2023-03-01T00:52:09;97;72;43
57049;PMS7003;42935;50.966;16.992;2023-03-01T00:55:37;105;78;45
57049;PMS7003;42935;50.966;16.992;2023-03-01T00:58:56;104;75;46
57049;PMS7003;42935;50.966;16.992;2023-03-01T01:02:16;121;85;49
57049;PMS7003;42935;50.966;16.992;2023-03-01T01:05:40;113;86;49
57049;PMS7003;42935;50.966;16.992;2023-03-01T01:08:54;0;0;0
57049;PMS7003;42935;50.966;16.992;2023-03-01T01:12:07;0;0;0
57049;PMS7003;42935;50.966;16.992;2023-03-01T01:15:20;0;0;0
57049;PMS7003;42935;50.966;16.992;2023-03-01T01:18:40;8;8;8
57049;PMS7003;42935;50.966;16.992;2023-03-01T01:21:54;0;0;0
57049;PMS7003;42935;50.966;16.992;2023-03-01T01:25:08;0;0;0
57049;PMS7003;42935;50.966;16.992;2023-03-01T01:28:24;0;0;0
57049;PMS7003;42935;50.966;16.992;2023-03-01T01:31:39;0;0;0
57049;PMS7003;42935;50.966;16.992;2023-03-01T01:34:55;0;0;0
57049;PMS7003;42935;50.966;16.992;2023-03-01T01:38:08;0;0;0
57049;PMS7003;42935;50.966;16.992;2023-03-01T01:41:23;0;0;0
57049;PMS7003;42935;50.966;16.992;2023-03-01T01:44:37;19;19;19
57049;PMS7003;42935;50.966;16.992;2023-03-01T01:47:52;0;0;0
57049;PMS7003;42935;50.966;16.992;2023-03-01T01:51:11;32;27;14
57049;PMS7003;42935;50.966;16.992;2023-03-01T01:54:33;0;0;0
57049;PMS7003;42935;50.966;16.992;2023-03-01T01:57:54;0;0;0
57049;PMS7003;42935;50.966;16.992;2023-03-01T02:01:13;0;0;0
57049;PMS7003;42935;50.966;16.992;2023-03-01T02:04:26;0;0;0
57049;PMS7003;42935;50.966;16.992;2023-03-01T02:07:41;0;0;0
57049;PMS7003;42935;50.966;16.992;2023-03-01T02:10:57;0;0;0
57049;PMS7003;42935;50.966;16.992;2023-03-01T02:14:12;0;0;0
57049;PMS7003;42935;50.966;16.992;2023-03-01T02:17:31;0;0;0
57049;PMS7003;42935;50.966;16.992;2023-03-01T02:31:07;0;0;0
57049;PMS7003;42935;50.966;16.992;2023-03-01T02:34:33;0;0;0
57049;PMS7003;42935;50.966;16.992;2023-03-01T02:37:47;0;0;0
57049;PMS7003;42935;50.966;16.992;2023-03-01T02:41:02;0;0;0
57049;PMS7003;42935;50.966;16.992;2023-03-01T02:44:18;0;0;0
57049;PMS7003;42935;50.966;16.992;2023-03-01T02:47:32;0;0;0
57049;PMS7003;42935;50.966;16.992;2023-03-01T02:54:14;0;0;0
57049;PMS7003;42935;50.966;16.992;2023-03-01T02:57:36;0;0;0
57049;PMS7003;42935;50.966;16.992;2023-03-01T03:00:53;0;0;0
57049;PMS7003;42935;50.966;16.992;2023-03-01T03:04:09;16;15;15
57049;PMS7003;42935;50.966;16.992;2023-03-01T03:07:28;0;0;0
57049;PMS7003;42935;50.966;16.992;2023-03-01T03:10:45;16;16;15
57049;PMS7003;42935;50.966;16.992;2023-03-01T03:13:59;0;0;0
57049;PMS7003;42935;50.966;16.992;2023-03-01T03:17:13;0;0;0
57049;PMS7003;42935;50.966;16.992;2023-03-01T03:20:27;0;0;0
57049;PMS7003;42935;50.966;16.992;2023-03-01T03:23:43;0;0;0
57049;PMS7003;42935;50.966;16.992;2023-03-01T03:26:55;0;0;0
57049;PMS7003;42935;50.966;16.992;2023-03-01T03:30:09;0;0;0
57049;PMS7003;42935;50.966;16.992;2023-03-01T03:33:26;0;0;0
57049;PMS7003;42935;50.966;16.992;2023-03-01T03:36:39;0;0;0
57049;PMS7003;42935;50.966;16.992;2023-03-01T03:39:53;0;0;0
57049;PMS7003;42935;50.966;16.992;2023-03-01T03:43:08;0;0;0
57049;PMS7003;42935;50.966;16.992;2023-03-01T03:46:24;0;0;0
57049;PMS7003;42935;50.966;16.992;2023-03-01T03:49:39;0;0;0
57049;PMS7003;42935;50.966;16.992;2023-03-01T03:52:55;0;0;0
57049;PMS7003;42935;50.966;16.992;2023-03-01T03:56:11;0;0;0
57049;PMS7003;42935;50.966;16.992;2023-03-01T03:59:25;0;0;0
57049;PMS7003;42935;50.966;16.992;2023-03-01T04:02:39;0;0;0
57049;PMS7003;42935;50.966;16.992;2023-03-01T04:05:54;0;0;0
57049;PMS7003;42935;50.966;16.992;2023-03-01T04:09:13;0;0;0
57049;PMS7003;42935;50.966;16.992;2023-03-01T04:12:28;0;0;0
57049;PMS7003;42935;50.966;16.992;2023-03-01T04:15:41;0;0;0
57049;PMS7003;42935;50.966;16.992;2023-03-01T04:18:55;0;0;0
57049;PMS7003;42935;50.966;16.992;2023-03-01T04:22:12;0;0;0
57049;PMS7003;42935;50.966;16.992;2023-03-01T04:25:29;0;0;0
57049;PMS7003;42935;50.966;16.992;2023-03-01T04:28:42;0;0;0
57049;PMS7003;42935;50.966;16.992;2023-03-01T04:31:59;0;0;0
57049;PMS7003;42935;50.966;16.992;2023-03-01T04:35:12;0;0;0
57049;PMS7003;42935;50.966;16.992;2023-03-01T04:38:27;0;0;0
57049;PMS7003;42935;50.966;16.992;2023-03-01T04:41:41;0;0;0
57049;PMS7003;42935;50.966;16.992;2023-03-01T04:44:57;0;0;0
57049;PMS7003;42935;50.966;16.992;2023-03-01T04:48:10;0;0;0
57049;PMS7003;42935;50.966;16.992;2023-03-01T04:51:25;0;0;0
57049;PMS7003;42935;50.966;16.992;2023-03-01T04:54:39;5;5;5
57049;PMS7003;42935;50.966;16.992;2023-03-01T04:57:53;0;0;0
57049;PMS7003;42935;50.966;16.992;2023-03-01T05:01:11;0;0;0
57049;PMS7003;42935;50.966;16.992;2023-03-01T05:04:31;0;0;0
57049;PMS7003;42935;50.966;16.992;2023-03-01T05:07:45;0;0;0
57049;PMS7003;42935;50.966;16.992;2023-03-01T05:11:30;0;0;0
57049;PMS7003;42935;50.966;16.992;2023-03-01T05:14:47;33;29;25
57049;PMS7003;42935;50.966;16.992;2023-03-01T05:18:02;0;0;0
57049;PMS7003;42935;50.966;16.992;2023-03-01T05:21:52;0;0;0
57049;PMS7003;42935;50.966;16.992;2023-03-01T05:25:17;0;0;0
57049;PMS7003;42935;50.966;16.992;2023-03-01T05:28:32;0;0;0
57049;PMS7003;42935;50.966;16.992;2023-03-01T05:31:45;0;0;0
57049;PMS7003;42935;50.966;16.992;2023-03-01T05:34:59;0;0;0
57049;PMS7003;42935;50.966;16.992;2023-03-01T05:38:12;0;0;0
57049;PMS7003;42935;50.966;16.992;2023-03-01T05:41:28;0;0;0
57049;PMS7003;42935;50.966;16.992;2023-03-01T05:44:41;0;0;0
57049;PMS7003;42935;50.966;16.992;2023-03-01T05:48:27;4;4;4
57049;PMS7003;42935;50.966;16.992;2023-03-01T05:51:45;0;0;0
57049;PMS7003;42935;50.966;16.992;2023-03-01T05:55:01;0;0;0
57049;PMS7003;42935;50.966;16.992;2023-03-01T05:58:15;4;4;4
57049;PMS7003;42935;50.966;16.992;2023-03-01T06:01:31;0;0;0
57049;PMS7003;42935;50.966;16.992;2023-03-01T06:04:45;0;0;0
57049;PMS7003;42935;50.966;16.992;2023-03-01T06:08:03;0;0;0
57049;PMS7003;42935;50.966;16.992;2023-03-01T06:11:21;30;25;23
57049;PMS7003;42935;50.966;16.992;2023-03-01T06:14:35;0;0;0
57049;PMS7003;42935;50.966;16.992;2023-03-01T06:17:49;0;0;0
57049;PMS7003;42935;50.966;16.992;2023-03-01T06:21:04;5;4;4
57049;PMS7003;42935;50.966;16.992;2023-03-01T06:24:19;0;0;0
57049;PMS7003;42935;50.966;16.992;2023-03-01T06:27:34;0;0;0
57049;PMS7003;42935;50.966;16.992;2023-03-01T06:30:50;49;49;42
57049;PMS7003;42935;50.966;16.992;2023-03-01T06:34:04;0;0;0
57049;PMS7003;42935;50.966;16.992;2023-03-01T06:37:18;0;0;0
57049;PMS7003;42935;50.966;16.992;2023-03-01T06:40:32;0;0;0
57049;PMS7003;42935;50.966;16.992;2023-03-01T06:43:47;0;0;0
57049;PMS7003;42935;50.966;16.992;2023-03-01T06:47:01;0;0;0
57049;PMS7003;42935;50.966;16.992;2023-03-01T06:50:17;0;0;0
57049;PMS7003;42935;50.966;16.992;2023-03-01T06:53:31;0;0;0
57049;PMS7003;42935;50.966;16.992;2023-03-01T06:56:48;0;0;0
57049;PMS7003;42935;50.966;16.992;2023-03-01T07:00:04;2;2;2
57049;PMS7003;42935;50.966;16.992;2023-03-01T07:03:19;0;0;0
57049;PMS7003;42935;50.966;16.992;2023-03-01T07:06:35;0;0;0
57049;PMS7003;42935;50.966;16.992;2023-03-01T07:09:51;0;0;0
57049;PMS7003;42935;50.966;16.992;2023-03-01T07:13:06;0;0;0
57049;PMS7003;42935;50.966;16.992;2023-03-01T07:16:20;0;0;0
57049;PMS7003;42935;50.966;16.992;2023-03-01T07:19:35;0;0;0
57049;PMS7003;42935;50.966;16.992;2023-03-01T07:22:51;0;0;0
57049;PMS7003;42935;50.966;16.992;2023-03-01T07:26:06;0;0;0
57049;PMS7003;42935;50.966;16.992;2023-03-01T07:29:21;39;32;26
57049;PMS7003;42935;50.966;16.992;2023-03-01T07:32:35;0;0;0
57049;PMS7003;42935;50.966;16.992;2023-03-01T07:35:55;0;0;0
57049;PMS7003;42935;50.966;16.992;2023-03-01T07:39:11;0;0;0
57049;PMS7003;42935;50.966;16.992;2023-03-01T07:42:25;0;0;0
57049;PMS7003;42935;50.966;16.992;2023-03-01T07:45:39;0;0;0
57049;PMS7003;42935;50.966;16.992;2023-03-01T07:49:01;14;14;10
57049;PMS7003;42935;50.966;16.992;2023-03-01T07:52:16;0;0;0
57049;PMS7003;42935;50.966;16.992;2023-03-01T07:55:33;1;1;1
57049;PMS7003;42935;50.966;16.992;2023-03-01T07:58:49;21;20;10
57049;PMS7003;42935;50.966;16.992;2023-03-01T08:02:05;38;36;29
57049;PMS7003;42935;50.966;16.992;2023-03-01T08:05:21;22;21;18
57049;PMS7003;42935;50.966;16.992;2023-03-01T08:08:37;2;2;2
57049;PMS7003;42935;50.966;16.992;2023-03-01T08:11:55;7;7;7
57049;PMS7003;42935;50.966;16.992;2023-03-01T08:15:15;113;111;110
57049;PMS7003;42935;50.966;16.992;2023-03-01T08:18:30;0;0;0
57049;PMS7003;42935;50.966;16.992;2023-03-01T08:21:43;0;0;0
57049;PMS7003;42935;50.966;16.992;2023-03-01T08:24:57;0;0;0
57049;PMS7003;42935;50.966;16.992;2023-03-01T08:28:11;0;0;0
57049;PMS7003;42935;50.966;16.992;2023-03-01T08:31:29;0;0;0
57049;PMS7003;42935;50.966;16.992;2023-03-01T08:34:50;4;3;3
57049;PMS7003;42935;50.966;16.992;2023-03-01T08:38:04;0;0;0
57049;PMS7003;42935;50.966;16.992;2023-03-01T08:41:17;0;0;0
57049;PMS7003;42935;50.966;16.992;2023-03-01T08:44:33;0;0;0
57049;PMS7003;42935;50.966;16.992;2023-03-01T08:47:46;0;0;0
57049;PMS7003;42935;50.966;16.992;2023-03-01T08:54:29;0;0;0
57049;PMS7003;42935;50.966;16.992;2023-03-01T08:57:43;0;0;0
57049;PMS7003;42935;50.966;16.992;2023-03-01T09:00:57;0;0;0
57049;PMS7003;42935;50.966;16.992;2023-03-01T09:04:11;0;0;0
57049;PMS7003;42935;50.966;16.992;2023-03-01T09:07:31;11;10;10
57049;PMS7003;42935;50.966;16.992;2023-03-01T09:10:45;0;0;0
57049;PMS7003;42935;50.966;16.992;2023-03-01T09:14:00;0;0;0
57049;PMS7003;42935;50.966;16.992;2023-03-01T09:17:13;0;0;0
57049;PMS7003;42935;50.966;16.992;2023-03-01T09:20:30;0;0;0
57049;PMS7003;42935;50.966;16.992;2023-03-01T09:23:45;0;0;0
57049;PMS7003;42935;50.966;16.992;2023-03-01T09:27:00;0;0;0
57049;PMS7003;42935;50.966;16.992;2023-03-01T09:30:16;7;7;7
57049;PMS7003;42935;50.966;16.992;2023-03-01T09:33:30;0;0;0
57049;PMS7003;42935;50.966;16.992;2023-03-01T09:36:45;0;0;0
57049;PMS7003;42935;50.966;16.992;2023-03-01T09:39:59;0;0;0
57049;PMS7003;42935;50.966;16.992;2023-03-01T09:43:19;0;0;0
57049;PMS7003;42935;50.966;16.992;2023-03-01T09:46:43;1;1;0
57049;PMS7003;42935;50.966;16.992;2023-03-01T09:53:31;0;0;0
57049;PMS7003;42935;50.966;16.992;2023-03-01T10:03:43;0;0;0
57049;PMS7003;42935;50.966;16.992;2023-03-01T10:10:44;5;5;4
57049;PMS7003;42935;50.966;16.992;2023-03-01T10:14:05;0;0;0
57049;PMS7003;42935;50.966;16.992;2023-03-01T10:17:27;0;0;0
57049;PMS7003;42935;50.966;16.992;2023-03-01T10:24:15;0;0;0
57049;PMS7003;42935;50.966;16.992;2023-03-01T10:27:36;0;0;0
57049;PMS7003;42935;50.966;16.992;2023-03-01T10:30:59;0;0;0
57049;PMS7003;42935;50.966;16.992;2023-03-01T10:38:08;1;1;1
57049;PMS7003;42935;50.966;16.992;2023-03-01T10:41:15;3;2;2
57049;PMS7003;42935;50.966;16.992;2023-03-01T10:44:37;1;1;1
57049;PMS7003;42935;50.966;16.992;2023-03-01T10:51:20;2;2;1
57049;PMS7003;42935;50.966;16.992;2023-03-01T10:54:35;11;6;3
57049;PMS7003;42935;50.966;16.992;2023-03-01T11:01:28;0;0;0
57049;PMS7003;42935;50.966;16.992;2023-03-01T11:08:10;0;0;0
57049;PMS7003;42935;50.966;16.992;2023-03-01T11:11:30;2;2;2
57049;PMS7003;42935;50.966;16.992;2023-03-01T11:14:59;70;50;30
57049;PMS7003;42935;50.966;16.992;2023-03-01T11:18:21;74;55;34
57049;PMS7003;42935;50.966;16.992;2023-03-01T11:21:51;71;53;33
57049;PMS7003;42935;50.966;16.992;2023-03-01T11:25:25;81;58;34
57049;PMS7003;42935;50.966;16.992;2023-03-01T11:28:50;71;53;32
57049;PMS7003;42935;50.966;16.992;2023-03-01T11:32:23;76;57;34
57049;PMS7003;42935;50.966;16.992;2023-03-01T11:43:03;80;60;36
57049;PMS7003;42935;50.966;16.992;2023-03-01T11:50:05;76;52;33
57049;PMS7003;42935;50.966;16.992;2023-03-01T12:00:58;62;47;29
57049;PMS7003;42935;50.966;16.992;2023-03-01T12:33:05;68;49;32
57049;PMS7003;42935;50.966;16.992;2023-03-01T12:50:47;72;53;34
57049;PMS7003;42935;50.966;16.992;2023-03-01T12:54:15;66;49;32
57049;PMS7003;42935;50.966;16.992;2023-03-01T12:57:49;68;51;31
57049;PMS7003;42935;50.966;16.992;2023-03-01T13:05:00;63;48;31
57049;PMS7003;42935;50.966;16.992;2023-03-01T13:15:36;50;36;23
57049;PMS7003;42935;50.966;16.992;2023-03-01T13:22:46;50;36;23
57049;PMS7003;42935;50.966;16.992;2023-03-01T13:26:11;51;39;25
57049;PMS7003;42935;50.966;16.992;2023-03-01T13:36:47;57;41;25
57049;PMS7003;42935;50.966;16.992;2023-03-01T13:43:47;49;37;22
57049;PMS7003;42935;50.966;16.992;2023-03-01T13:47:16;46;35;23
57049;PMS7003;42935;50.966;16.992;2023-03-01T13:50:42;54;38;23
57049;PMS7003;42935;50.966;16.992;2023-03-01T13:54:04;48;36;23
57049;PMS7003;42935;50.966;16.992;2023-03-01T13:57:20;46;35;22
57049;PMS7003;42935;50.966;16.992;2023-03-01T14:00:55;48;38;23
57049;PMS7003;42935;50.966;16.992;2023-03-01T14:04:24;52;38;23
57049;PMS7003;42935;50.966;16.992;2023-03-01T14:07:50;45;35;24
57049;PMS7003;42935;50.966;16.992;2023-03-01T14:11:20;48;38;24
57049;PMS7003;42935;50.966;16.992;2023-03-01T14:25:45;42;35;23
57049;PMS7003;42935;50.966;16.992;2023-03-01T14:29:10;47;36;23
57049;PMS7003;42935;50.966;16.992;2023-03-01T14:32:40;56;40;24
57049;PMS7003;42935;50.966;16.992;2023-03-01T14:36:05;48;37;24
57049;PMS7003;42935;50.966;16.992;2023-03-01T14:39:26;52;38;22
57049;PMS7003;42935;50.966;16.992;2023-03-01T14:42:48;48;38;23
57049;PMS7003;42935;50.966;16.992;2023-03-01T14:49:46;54;41;24
57049;PMS7003;42935;50.966;16.992;2023-03-01T14:56:53;47;34;22
57049;PMS7003;42935;50.966;16.992;2023-03-01T15:00:55;44;34;22
57049;PMS7003;42935;50.966;16.992;2023-03-01T15:04:23;66;48;29
57049;PMS7003;42935;50.966;16.992;2023-03-01T15:07:44;53;40;25
57049;PMS7003;42935;50.966;16.992;2023-03-01T15:14:49;54;43;28
57049;PMS7003;42935;50.966;16.992;2023-03-01T15:18:15;56;39;23
57049;PMS7003;42935;50.966;16.992;2023-03-01T15:21:38;49;35;23
57049;PMS7003;42935;50.966;16.992;2023-03-01T15:25:13;45;36;21
57049;PMS7003;42935;50.966;16.992;2023-03-01T15:28:37;39;31;21
57049;PMS7003;42935;50.966;16.992;2023-03-01T15:32:02;38;29;20
57049;PMS7003;42935;50.966;16.992;2023-03-01T15:35:45;43;32;20
57049;PMS7003;42935;50.966;16.992;2023-03-01T15:42:40;42;32;19
57049;PMS7003;42935;50.966;16.992;2023-03-01T15:45:59;33;29;19
57049;PMS7003;42935;50.966;16.992;2023-03-01T15:49:25;40;33;21
57049;PMS7003;42935;50.966;16.992;2023-03-01T15:52:57;37;31;20
57049;PMS7003;42935;50.966;16.992;2023-03-01T15:56:22;39;32;20
57049;PMS7003;42935;50.966;16.992;2023-03-01T15:59:47;39;30;19
57049;PMS7003;42935;50.966;16.992;2023-03-01T16:03:42;44;32;20
57049;PMS7003;42935;50.966;16.992;2023-03-01T16:07:06;46;32;20
57049;PMS7003;42935;50.966;16.992;2023-03-01T16:10:29;38;29;18
57049;PMS7003;42935;50.966;16.992;2023-03-01T16:14:20;43;30;20
57049;PMS7003;42935;50.966;16.992;2023-03-01T16:17:39;40;30;19
57049;PMS7003;42935;50.966;16.992;2023-03-01T16:20:59;43;31;21
57049;PMS7003;42935;50.966;16.992;2023-03-01T16:24:20;50;34;21
57049;PMS7003;42935;50.966;16.992;2023-03-01T16:31:19;51;38;23
57049;PMS7003;42935;50.966;16.992;2023-03-01T16:34:43;62;45;25
57049;PMS7003;42935;50.966;16.992;2023-03-01T16:38:35;54;38;25
57049;PMS7003;42935;50.966;16.992;2023-03-01T16:42:25;43;36;22
57049;PMS7003;42935;50.966;16.992;2023-03-01T16:45:48;61;44;26
57049;PMS7003;42935;50.966;16.992;2023-03-01T16:49:13;64;47;28
57049;PMS7003;42935;50.966;16.992;2023-03-01T16:52:36;72;50;30
57049;PMS7003;42935;50.966;16.992;2023-03-01T16:56:02;71;48;29
57049;PMS7003;42935;50.966;16.992;2023-03-01T16:59:23;66;47;28
57049;PMS7003;42935;50.966;16.992;2023-03-01T17:03:18;109;76;41
57049;PMS7003;42935;50.966;16.992;2023-03-01T17:06:40;86;62;36
57049;PMS7003;42935;50.966;16.992;2023-03-01T17:10:09;79;52;32
57049;PMS7003;42935;50.966;16.992;2023-03-01T17:13:33;64;47;28
57049;PMS7003;42935;50.966;16.992;2023-03-01T17:16:58;62;44;26
57049;PMS7003;42935;50.966;16.992;2023-03-01T17:20:23;63;47;29
57049;PMS7003;42935;50.966;16.992;2023-03-01T17:23:47;70;49;29
57049;PMS7003;42935;50.966;16.992;2023-03-01T17:27:08;61;45;28
57049;PMS7003;42935;50.966;16.992;2023-03-01T17:30:33;64;47;29
57049;PMS7003;42935;50.966;16.992;2023-03-01T17:33:52;71;53;34
57049;PMS7003;42935;50.966;16.992;2023-03-01T17:37:14;349;249;121
57049;PMS7003;42935;50.966;16.992;2023-03-01T17:40:36;117;91;54
57049;PMS7003;42935;50.966;16.992;2023-03-01T17:43:56;84;62;37
57049;PMS7003;42935;50.966;16.992;2023-03-01T17:47:21;74;50;29
57049;PMS7003;42935;50.966;16.992;2023-03-01T17:50:49;80;58;33
57049;PMS7003;42935;50.966;16.992;2023-03-01T17:54:08;91;69;38
57049;PMS7003;42935;50.966;16.992;2023-03-01T17:57:31;80;55;34
57049;PMS7003;42935;50.966;16.992;2023-03-01T18:00:54;69;49;30
57049;PMS7003;42935;50.966;16.992;2023-03-01T18:04:18;69;49;31
57049;PMS7003;42935;50.966;16.992;2023-03-01T18:07:38;60;42;25
57049;PMS7003;42935;50.966;16.992;2023-03-01T18:10:59;69;46;27
57049;PMS7003;42935;50.966;16.992;2023-03-01T18:14:22;70;50;32
57049;PMS7003;42935;50.966;16.992;2023-03-01T18:17:46;63;44;27
57049;PMS7003;42935;50.966;16.992;2023-03-01T18:21:14;67;45;26
57049;PMS7003;42935;50.966;16.992;2023-03-01T18:24:38;67;47;29
57049;PMS7003;42935;50.966;16.992;2023-03-01T18:28:39;72;48;29
57049;PMS7003;42935;50.966;16.992;2023-03-01T18:31:57;65;44;26
57049;PMS7003;42935;50.966;16.992;2023-03-01T18:35:17;76;52;33
57049;PMS7003;42935;50.966;16.992;2023-03-01T18:38:47;68;49;30
57049;PMS7003;42935;50.966;16.992;2023-03-01T18:42:11;72;52;31
57049;PMS7003;42935;50.966;16.992;2023-03-01T18:45:36;70;50;31
57049;PMS7003;42935;50.966;16.992;2023-03-01T18:49:07;87;66;38
57049;PMS7003;42935;50.966;16.992;2023-03-01T18:52:34;108;81;48
57049;PMS7003;42935;50.966;16.992;2023-03-01T18:56:02;99;79;47
57049;PMS7003;42935;50.966;16.992;2023-03-01T18:59:31;125;93;54
57049;PMS7003;42935;50.966;16.992;2023-03-01T19:02:59;125;96;56
57049;PMS7003;42935;50.966;16.992;2023-03-01T19:06:26;150;113;64
57049;PMS7003;42935;50.966;16.992;2023-03-01T19:09:57;145;106;60
57049;PMS7003;42935;50.966;16.992;2023-03-01T19:13:51;148;111;61
57049;PMS7003;42935;50.966;16.992;2023-03-01T19:17:16;144;107;59
57049;PMS7003;42935;50.966;16.992;2023-03-01T19:20:41;136;100;56
57049;PMS7003;42935;50.966;16.992;2023-03-01T19:24:12;126;97;54
57049;PMS7003;42935;50.966;16.992;2023-03-01T19:27:32;126;94;55
57049;PMS7003;42935;50.966;16.992;2023-03-01T19:31:01;119;92;50
57049;PMS7003;42935;50.966;16.992;2023-03-01T19:35:01;109;84;46
57049;PMS7003;42935;50.966;16.992;2023-03-01T19:38:29;93;68;41
57049;PMS7003;42935;50.966;16.992;2023-03-01T19:41:52;92;67;38
57049;PMS7003;42935;50.966;16.992;2023-03-01T19:45:15;89;62;38
57049;PMS7003;42935;50.966;16.992;2023-03-01T19:48:36;91;63;39
57049;PMS7003;42935;50.966;16.992;2023-03-01T19:52:08;101;77;45
57049;PMS7003;42935;50.966;16.992;2023-03-01T19:55:37;97;71;41
57049;PMS7003;42935;50.966;16.992;2023-03-01T19:59:05;108;79;44
57049;PMS7003;42935;50.966;16.992;2023-03-01T20:02:28;120;87;47
57049;PMS7003;42935;50.966;16.992;2023-03-01T20:05:53;98;76;44
57049;PMS7003;42935;50.966;16.992;2023-03-01T20:09:18;103;73;41
57049;PMS7003;42935;50.966;16.992;2023-03-01T20:13:07;115;81;47
57049;PMS7003;42935;50.966;16.992;2023-03-01T20:17:06;146;109;60
57049;PMS7003;42935;50.966;16.992;2023-03-01T20:20:29;159;115;62
57049;PMS7003;42935;50.966;16.992;2023-03-01T20:24:18;269;186;98
57049;PMS7003;42935;50.966;16.992;2023-03-01T20:27:40;247;173;94
57049;PMS7003;42935;50.966;16.992;2023-03-01T20:31:08;227;164;87
57049;PMS7003;42935;50.966;16.992;2023-03-01T20:34:40;151;111;63
57049;PMS7003;42935;50.966;16.992;2023-03-01T20:38:04;160;113;61
57049;PMS7003;42935;50.966;16.992;2023-03-01T20:41:24;161;120;65
57049;PMS7003;42935;50.966;16.992;2023-03-01T20:44:53;143;102;57
57049;PMS7003;42935;50.966;16.992;2023-03-01T20:48:14;160;113;61
57049;PMS7003;42935;50.966;16.992;2023-03-01T20:51:35;140;97;55
57049;PMS7003;42935;50.966;16.992;2023-03-01T20:54:59;138;100;55
57049;PMS7003;42935;50.966;16.992;2023-03-01T20:58:54;134;93;52
57049;PMS7003;42935;50.966;16.992;2023-03-01T21:02:55;142;99;56
57049;PMS7003;42935;50.966;16.992;2023-03-01T21:06:18;144;106;59
57049;PMS7003;42935;50.966;16.992;2023-03-01T21:09:43;138;104;58
57049;PMS7003;42935;50.966;16.992;2023-03-01T21:13:06;138;100;55
57049;PMS7003;42935;50.966;16.992;2023-03-01T21:16:32;135;100;56
57049;PMS7003;42935;50.966;16.992;2023-03-01T21:19:55;141;105;60
57049;PMS7003;42935;50.966;16.992;2023-03-01T21:23:53;147;106;59
57049;PMS7003;42935;50.966;16.992;2023-03-01T21:27:44;153;111;62
57049;PMS7003;42935;50.966;16.992;2023-03-01T21:31:11;142;102;56
57049;PMS7003;42935;50.966;16.992;2023-03-01T21:34:39;133;103;54
57049;PMS7003;42935;50.966;16.992;2023-03-01T21:38:38;150;107;58
57049;PMS7003;42935;50.966;16.992;2023-03-01T21:42:38;153;109;61
57049;PMS7003;42935;50.966;16.992;2023-03-01T21:46:01;162;115;67
57049;PMS7003;42935;50.966;16.992;2023-03-01T21:49:29;218;154;84
57049;PMS7003;42935;50.966;16.992;2023-03-01T21:53:24;202;145;77
57049;PMS7003;42935;50.966;16.992;2023-03-01T21:56:51;190;136;73
57049;PMS7003;42935;50.966;16.992;2023-03-01T22:00:19;221;155;82
57049;PMS7003;42935;50.966;16.992;2023-03-01T22:03:43;219;150;78
57049;PMS7003;42935;50.966;16.992;2023-03-01T22:07:12;188;133;74
57049;PMS7003;42935;50.966;16.992;2023-03-01T22:10:37;128;98;55
57049;PMS7003;42935;50.966;16.992;2023-03-01T22:14:08;158;110;61
57049;PMS7003;42935;50.966;16.992;2023-03-01T22:17:32;156;114;63
57049;PMS7003;42935;50.966;16.992;2023-03-01T22:20:55;175;123;67
57049;PMS7003;42935;50.966;16.992;2023-03-01T22:24:31;152;107;59
57049;PMS7003;42935;50.966;16.992;2023-03-01T22:27:58;140;101;56
57049;PMS7003;42935;50.966;16.992;2023-03-01T22:31:24;135;100;57
57049;PMS7003;42935;50.966;16.992;2023-03-01T22:34:45;122;95;53
57049;PMS7003;42935;50.966;16.992;2023-03-01T22:38:13;137;94;53
57049;PMS7003;42935;50.966;16.992;2023-03-01T22:41:42;125;93;51
57049;PMS7003;42935;50.966;16.992;2023-03-01T22:45:11;133;95;52
57049;PMS7003;42935;50.966;16.992;2023-03-01T22:49:09;135;97;54
57049;PMS7003;42935;50.966;16.992;2023-03-01T22:52:34;142;101;56
57049;PMS7003;42935;50.966;16.992;2023-03-01T22:59:41;134;93;53
57049;PMS7003;42935;50.966;16.992;2023-03-01T23:03:02;123;91;52
57049;PMS7003;42935;50.966;16.992;2023-03-01T23:06:26;129;92;51
57049;PMS7003;42935;50.966;16.992;2023-03-01T23:09:51;132;92;55
57049;PMS7003;42935;50.966;16.992;2023-03-01T23:13:40;133;98;55
57049;PMS7003;42935;50.966;16.992;2023-03-01T23:17:09;135;95;51
57049;PMS7003;42935;50.966;16.992;2023-03-01T23:20:38;141;102;55
57049;PMS7003;42935;50.966;16.992;2023-03-01T23:24:27;144;102;57
57049;PMS7003;42935;50.966;16.992;2023-03-01T23:28:01;147;103;56
57049;PMS7003;42935;50.966;16.992;2023-03-01T23:31:28;142;104;58
57049;PMS7003;42935;50.966;16.992;2023-03-01T23:34:51;148;102;57
57049;PMS7003;42935;50.966;16.992;2023-03-01T23:38:46;152;107;58
57049;PMS7003;42935;50.966;16.992;2023-03-01T23:42:14;142;105;57
57049;PMS7003;42935;50.966;16.992;2023-03-01T23:45:39;144;103;58
57049;PMS7003;42935;50.966;16.992;2023-03-01T23:49:12;144;105;56
57049;PMS7003;42935;50.966;16.992;2023-03-01T23:52:44;149;109;57
57049;PMS7003;42935;50.966;16.992;2023-03-01T23:56:05;138;102;58
57049;PMS7003;42935;50.966;16.992;2023-03-01T23:59:30;141;103;56
